Aérodrome :
LOGIN :

S'inscrire | Disclaimer

   EN    FR    IT 

 










Légende :    VFR   VFR Marginal   IFR   IFR Intensif   IFR Très Intensif
Visi : 
Plafond : 
>= 8 km
>= 3000ft
5 à 8 km
1000 à 3000 ft
1500m à 5 km
500 à 1000 ft
800 à 1500m
200 à 500 ft
< 800m
< 200 ft
Symboles :   Orages  Brouillard  Fortes neiges  Fortes précipitations  Vent > 20 kt
SIGMETs :   Divers  Orages  Givrage  Turbulence  Onde Orograph.  Cendres Volcan.







- Altitude de l'aérodrome : 459 ft
- Code IATA : CER
- Voir les cartes d'approche


LFRC - Cherbourg / Maupertus

DERNIER METAR :
  • 261930Z AUTO 26013KT 2000 BR OVC003 13/13 Q1015

METARs EXPIRÉS :
  • 261900Z AUTO 26013KT 4000 BR OVC003 13/13 Q1015
  • 261830Z AUTO 26014KT 2600 BR OVC003 13/13 Q1015
  • 261800Z AUTO 26012KT 7000 OVC003 13/13 Q1015
  • 261730Z AUTO 25011KT 2100 BR OVC002 13/13 Q1015 TEMPO RADZ
  • 261700Z AUTO 25011KT 2200 BR OVC002 13/13 Q1015 TEMPO 26015G25KT RADZ

TAF AMD TAF LFRC
Valide du 26 à 16h jusqu'au 27 à 00h UTC


261629Z 2616/2624 26015KT 4000 BR BKN004
TEMPO 2616/2618 26015G25KT
TEMPO 2616/2621 1500 RADZ OVC002
BECMG 2619/2622 9999 NSW BKN020
Pas de NOTAMs connus pour ce terrain.



MET'MAP, la Météo Aéronautique d'un coup d'oeil ! - Copyright ORBIFLY Décembre 2007 - Disclaimer

ORBIFLY MET'MAP TEAM :

Programmation & Développement : Alexandra Zaïnal
Conception & Développement : Baudouin d'Aumeries
Co-Programmation & Développement : Marc-Olivier Méhu
Soutien technique & logistique : Manuel Goepfert

Contact : metmap@orbifly.com




SOURCES & CREDITS :

   NOAA